Time;durP1;ratioP1;P1;durP2;ratioP2;P2;SDS_P1;SDS_P2;PMS_P1;PMS_P2;Temp;Humidity;BMP_temperature;BMP_pressure;BME280_temperature;BME280_humidity;BME280_pressure;Samples;Min_cycle;Max_cycle;Signal;HPM_P1;HPM_P2
2022/09/09 00:01:04;;;;;;;4.00;2.00;;;;;;;22.65;49.71;99365.94;4123193;28;20298;-65
2022/09/09 00:03:14;;;;;;;4.40;2.17;;;;;;;23.68;48.17;99326.56;4122893;28;20268;-65
2022/09/09 00:05:16;;;;;;;2.93;1.87;;;;;;;23.30;49.11;99293.03;4122129;28;20244;-65
2022/09/09 00:07:24;;;;;;;3.37;2.17;;;;;;;24.29;47.31;99275.53;4120966;28;20230;-65
2022/09/09 00:09:29;;;;;;;4.03;1.80;;;;;;;22.56;50.41;99297.81;4115859;28;20329;-65
2022/09/09 00:11:42;;;;;;;3.37;1.90;;;;;;;21.82;51.30;99327.75;4118689;28;20243;-65
2022/09/09 00:13:50;;;;;;;3.13;1.80;;;;;;;23.41;49.20;99247.88;4124003;28;20248;-65
2022/09/09 00:16:07;;;;;;;6.70;1.93;;;;;;;23.65;48.35;99264.66;4125351;28;20249;-65
2022/09/09 00:18:38;;;;;;;4.13;2.00;;;;;;;22.81;49.76;99307.34;4119878;28;20241;-65
2022/09/09 00:20:47;;;;;;;2.83;1.90;;;;;;;24.09;48.18;99262.59;4128186;28;20734;-65
2022/09/09 00:23:25;;;;;;;3.77;1.90;;;;;;;22.09;51.50;99322.53;4124132;28;20206;-65
2022/09/09 00:25:34;;;;;;;3.63;1.97;;;;;;;23.37;49.63;99250.28;4116300;28;20329;-65
2022/09/09 00:27:46;;;;;;;3.47;1.87;;;;;;;22.63;50.53;99297.63;4118781;28;20244;-65
2022/09/09 00:29:58;;;;;;;4.03;1.83;;;;;;;22.11;52.17;99298.72;4122594;28;20316;-65
2022/09/09 00:32:11;;;;;;;3.43;1.87;;;;;;;23.41;49.05;99278.53;4126891;28;20321;-65
2022/09/09 00:34:16;;;;;;;5.17;2.10;;;;;;;23.51;48.91;99284.03;4124033;28;20233;-65
2022/09/09 00:36:26;;;;;;;4.47;1.97;;;;;;;23.64;48.71;99299.13;4124379;28;20245;-65
2022/09/09 00:38:51;;;;;;;6.40;2.10;;;;;;;21.49;52.68;99356.31;4126821;28;20273;-65
2022/09/09 00:41:01;;;;;;;5.03;1.73;;;;;;;21.83;52.01;99340.19;4123100;28;20322;-65
2022/09/09 00:43:25;;;;;;;5.00;2.10;;;;;;;22.43;51.90;99288.13;4124801;28;20233;-65
2022/09/09 00:45:45;;;;;;;3.80;1.80;;;;;;;22.47;51.65;99261.38;4120057;28;20261;-66
2022/09/09 00:47:47;;;;;;;4.80;2.00;;;;;;;21.01;53.99;99333.19;4123748;28;20236;-65
2022/09/09 00:50:00;;;;;;;2.93;1.97;;;;;;;20.91;54.79;99288.63;4127079;28;20260;-66
2022/09/09 00:52:08;;;;;;;4.17;2.00;;;;;;;22.58;52.03;99233.34;4129646;28;20308;-65
2022/09/09 00:54:25;;;;;;;3.97;2.20;;;;;;;20.96;55.04;99294.19;4123668;28;20233;-65
2022/09/09 00:56:41;;;;;;;6.03;2.37;;;;;;;21.08;54.83;99271.72;4125023;28;20240;-65
2022/09/09 00:58:59;;;;;;;2.73;1.80;;;;;;;21.49;53.87;99273.28;4126136;28;20268;-65
2022/09/09 01:01:12;;;;;;;4.77;2.00;;;;;;;21.65;52.92;99295.25;4123272;28;20831;-66
2022/09/09 01:03:37;;;;;;;4.07;2.10;;;;;;;21.97;52.97;99279.28;4122101;28;20234;-65
2022/09/09 01:05:50;;;;;;;4.80;2.00;;;;;;;21.67;53.80;99280.41;4114490;28;20226;-66
2022/09/09 01:07:52;;;;;;;4.93;1.60;;;;;;;21.59;53.27;99307.81;4121652;28;20951;-65
2022/09/09 01:10:04;;;;;;;7.27;1.77;;;;;;;20.61;54.07;99384.16;4129941;28;20230;-65
2022/09/09 01:12:12;;;;;;;3.63;1.80;;;;;;;20.48;55.87;99314.16;4113378;28;20581;-65
2022/09/09 01:14:20;;;;;;;4.13;1.73;;;;;;;21.70;53.55;99288.03;4122111;28;20791;-66
2022/09/09 01:16:22;;;;;;;4.77;1.87;;;;;;;21.67;53.25;99287.72;4126597;28;20229;-66
2022/09/09 01:18:28;;;;;;;3.83;1.70;;;;;;;20.86;55.01;99312.03;4124479;28;20308;-65
2022/09/09 01:20:44;;;;;;;6.33;1.90;;;;;;;21.26;53.96;99319.34;4123452;28;20252;-65
2022/09/09 01:23:34;;;;;;;3.27;1.47;;;;;;;20.66;55.42;99324.03;4123570;28;20229;-65
2022/09/09 01:26:43;;;;;;;4.97;1.70;;;;;;;19.62;58.33;99329.84;4112442;28;20320;-66
2022/09/09 01:28:48;;;;;;;8.13;2.03;;;;;;;21.30;53.87;99307.81;4063836;29;20655;-66
2022/09/09 01:30:50;;;;;;;6.37;1.97;;;;;;;21.67;54.00;99258.75;4072547;29;20204;-66
2022/09/09 01:33:00;;;;;;;5.80;1.83;;;;;;;21.87;54.22;99266.41;4086160;28;20263;-66
2022/09/09 01:35:03;;;;;;;7.07;1.63;;;;;;;21.23;55.09;99307.16;4121095;28;20268;-66
2022/09/09 01:37:12;;;;;;;4.97;2.03;;;;;;;21.03;56.21;99260.81;4124927;28;20707;-65
2022/09/09 01:39:14;;;;;;;3.57;1.40;;;;;;;20.35;57.31;99292.84;4120765;28;20342;-66
2022/09/09 01:41:16;;;;;;;4.47;1.70;;;;;;;20.09;57.89;99275.97;4110249;28;20329;-66
2022/09/09 01:43:22;;;;;;;3.80;1.63;;;;;;;19.49;58.35;99301.16;4113518;28;20243;-65
2022/09/09 01:45:24;;;;;;;2.80;1.60;;;;;;;19.86;57.32;99301.88;4112543;28;20276;-67
2022/09/09 01:47:26;;;;;;;5.03;1.43;;;;;;;19.62;58.02;99268.66;4128517;28;20335;-66
2022/09/09 01:49:27;;;;;;;4.77;1.50;;;;;;;18.83;59.41;99319.81;4123408;28;20234;-65
2022/09/09 01:51:30;;;;;;;4.07;1.60;;;;;;;18.84;60.37;99283.72;4116829;28;20338;-64
2022/09/09 01:53:31;;;;;;;4.30;1.50;;;;;;;19.81;58.34;99231.63;4115766;28;20989;-64
2022/09/09 01:56:10;;;;;;;3.77;1.97;;;;;;;19.31;59.70;99262.41;4123461;28;20690;-65
2022/09/09 01:58:28;;;;;;;2.07;1.37;;;;;;;19.05;59.82;99297.78;4124400;28;20236;-65
2022/09/09 02:00:31;;;;;;;2.17;1.60;;;;;;;19.51;59.48;99250.53;4117627;28;20317;-65
2022/09/09 02:02:41;;;;;;;5.50;1.77;;;;;;;19.45;59.82;99267.59;4123014;28;20241;-65
2022/09/09 02:04:46;;;;;;;5.97;1.80;;;;;;;20.30;57.54;99271.09;4120868;28;20226;-65
2022/09/09 02:06:52;;;;;;;5.83;2.00;;;;;;;19.94;57.89;99302.59;4124985;28;20239;-65
2022/09/09 02:08:56;;;;;;;2.57;1.90;;;;;;;19.74;58.54;99303.75;4125293;28;20703;-65
2022/09/09 02:11:13;;;;;;;4.53;1.80;;;;;;;19.24;59.46;99357.88;4125501;28;20248;-65
2022/09/09 02:13:18;;;;;;;3.63;1.90;;;;;;;19.98;59.49;99280.31;4121577;28;20238;-65
2022/09/09 02:15:30;;;;;;;3.53;1.63;;;;;;;19.59;60.17;99306.00;4123999;28;20264;-65
2022/09/09 02:17:36;;;;;;;3.00;2.10;;;;;;;20.22;59.24;99243.38;4124500;28;20715;-65
2022/09/09 02:19:57;;;;;;;5.50;2.20;;;;;;;19.54;60.41;99276.19;4119791;28;20241;-65
2022/09/09 02:22:00;;;;;;;5.70;1.83;;;;;;;19.77;60.05;99254.69;4124847;28;20248;-65
2022/09/09 02:24:08;;;;;;;3.50;1.90;;;;;;;19.76;59.64;99279.22;4123538;28;20230;-65
2022/09/09 02:26:13;;;;;;;2.27;1.73;;;;;;;20.00;59.20;99263.91;4115428;28;20234;-65
2022/09/09 02:28:16;;;;;;;2.90;1.60;;;;;;;19.94;58.89;99270.22;4116500;28;20265;-65
2022/09/09 02:30:20;;;;;;;2.87;1.60;;;;;;;19.46;59.63;99301.63;4104574;28;20231;-65
2022/09/09 02:32:23;;;;;;;2.83;1.50;;;;;;;20.17;58.70;99245.94;4114798;28;20660;-65
2022/09/09 02:34:27;;;;;;;4.73;1.50;;;;;;;20.30;57.73;99281.88;4125243;28;20238;-65
2022/09/09 02:36:34;;;;;;;2.17;1.80;;;;;;;20.09;59.38;99272.47;4122650;28;20240;-65
2022/09/09 02:38:40;;;;;;;2.70;1.50;;;;;;;20.93;57.39;99235.16;4127928;28;20230;-65
2022/09/09 02:40:42;;;;;;;3.83;1.50;;;;;;;19.81;58.35;99358.41;4122960;28;20238;-65
2022/09/09 02:42:47;;;;;;;2.70;1.70;;;;;;;20.54;57.10;99334.03;4119755;28;20218;-65
2022/09/09 02:44:49;;;;;;;2.10;1.80;;;;;;;19.58;59.40;99358.31;4119523;28;20297;-65
2022/09/09 02:47:07;;;;;;;6.43;1.80;;;;;;;20.31;57.60;99335.66;4120547;28;20636;-65
2022/09/09 02:49:15;;;;;;;2.63;1.40;;;;;;;19.44;59.20;99347.69;4121880;28;20332;-65
2022/09/09 02:51:39;;;;;;;2.90;1.70;;;;;;;19.53;58.28;99356.28;4121830;28;20724;-65
2022/09/09 02:53:52;;;;;;;2.90;1.40;;;;;;;19.63;58.50;99342.28;4124435;28;20240;-65
2022/09/09 02:56:09;;;;;;;5.03;1.57;;;;;;;19.44;59.09;99325.28;4125295;28;20822;-65
2022/09/09 02:58:16;;;;;;;3.70;2.10;;;;;;;19.73;58.50;99303.97;4125337;28;20806;-65
2022/09/09 03:00:27;;;;;;;2.70;1.50;;;;;;;20.41;57.61;99260.28;4129635;28;20268;-65
2022/09/09 03:02:28;;;;;;;2.83;1.90;;;;;;;20.36;56.34;99310.66;4121446;28;20320;-66
2022/09/09 03:04:31;;;;;;;2.47;1.40;;;;;;;19.36;58.91;99350.69;4122923;28;20257;-65
2022/09/09 03:06:32;;;;;;;6.03;1.70;;;;;;;19.52;58.55;99324.94;4106013;28;20234;-65
2022/09/09 03:08:34;;;;;;;5.80;1.80;;;;;;;20.72;57.06;99249.31;4121324;28;20907;-65
2022/09/09 03:10:36;;;;;;;3.40;1.70;;;;;;;21.12;55.16;99299.91;4124757;28;20314;-65
2022/09/09 03:12:38;;;;;;;2.97;1.63;;;;;;;19.54;58.94;99360.63;4124638;28;20310;-65
2022/09/09 03:14:40;;;;;;;3.60;1.40;;;;;;;21.40;54.24;99326.13;4126479;28;20308;-65
2022/09/09 03:16:42;;;;;;;1.30;1.20;;;;;;;20.42;57.33;99326.75;4123148;28;20206;-65
2022/09/09 03:18:45;;;;;;;2.63;1.20;;;;;;;20.74;55.03;99383.13;4121993;28;20644;-65
2022/09/09 03:20:50;;;;;;;3.23;1.40;;;;;;;20.83;55.45;99342.22;4110708;28;20294;-65
2022/09/09 03:22:53;;;;;;;4.33;1.80;;;;;;;19.15;58.59;99411.28;4111128;28;20268;-66
2022/09/09 03:24:54;;;;;;;2.57;1.37;;;;;;;21.54;54.77;99268.00;4107707;28;20322;-65
2022/09/09 03:26:56;;;;;;;3.10;1.70;;;;;;;20.96;55.37;99329.31;4104765;28;20242;-65
2022/09/09 03:29:00;;;;;;;2.53;1.30;;;;;;;20.64;55.95;99345.06;4102629;28;20245;-65
2022/09/09 03:31:04;;;;;;;1.50;1.20;;;;;;;20.27;57.12;99347.16;4107285;28;20233;-65
2022/09/09 03:33:06;;;;;;;2.63;1.30;;;;;;;20.11;57.57;99356.72;4116405;28;20246;-65
2022/09/09 03:35:08;;;;;;;2.47;1.40;;;;;;;20.46;57.11;99326.28;4110907;28;20237;-65
2022/09/09 03:37:10;;;;;;;1.50;1.30;;;;;;;20.67;55.59;99354.56;4130175;28;20234;-65
2022/09/09 03:39:11;;;;;;;1.30;1.17;;;;;;;20.02;57.35;99362.44;4120253;28;20590;-65
2022/09/09 03:41:14;;;;;;;2.87;2.00;;;;;;;21.20;55.26;99306.81;4114977;28;20850;-65
2022/09/09 03:43:16;;;;;;;5.53;1.50;;;;;;;21.15;55.25;99307.53;4121568;28;20718;-65
2022/09/09 03:45:18;;;;;;;3.67;1.43;;;;;;;20.62;55.77;99369.59;4124194;28;20237;-65
2022/09/09 03:47:21;;;;;;;4.53;1.50;;;;;;;21.30;53.79;99358.38;4121123;28;20242;-65
2022/09/09 03:49:24;;;;;;;4.50;1.40;;;;;;;20.92;54.98;99363.25;4111267;28;20231;-65
2022/09/09 03:51:25;;;;;;;4.33;1.70;;;;;;;22.22;52.34;99321.34;4118515;28;20232;-65
2022/09/09 03:53:27;;;;;;;4.83;1.50;;;;;;;20.27;56.27;99409.25;4127968;28;20628;-65
2022/09/09 03:55:29;;;;;;;3.77;1.50;;;;;;;20.58;55.92;99389.22;4114800;28;20329;-65
2022/09/09 03:57:31;;;;;;;2.80;1.40;;;;;;;20.25;55.95;99423.78;4113156;28;20234;-65
2022/09/09 03:59:34;;;;;;;2.53;1.50;;;;;;;19.33;58.19;99440.94;4112464;28;20843;-65
2022/09/09 04:01:36;;;;;;;2.23;1.70;;;;;;;21.30;54.56;99320.53;4119002;28;20230;-65
2022/09/09 04:03:37;;;;;;;4.63;1.40;;;;;;;20.97;54.83;99359.84;4122985;28;20972;-65
2022/09/09 04:05:42;;;;;;;2.67;1.60;;;;;;;20.89;55.38;99347.50;4126589;28;20782;-65
2022/09/09 04:07:43;;;;;;;4.20;1.70;;;;;;;20.64;56.25;99350.47;4125200;28;20290;-65
2022/09/09 04:09:45;;;;;;;3.67;1.27;;;;;;;20.72;55.27;99369.03;4127127;28;20244;-65
2022/09/09 04:11:47;;;;;;;4.20;1.30;;;;;;;20.42;56.12;99383.44;4124474;28;20309;-65
2022/09/09 04:13:49;;;;;;;3.17;1.33;;;;;;;21.50;53.50;99364.19;4128556;28;20327;-65
2022/09/09 04:15:55;;;;;;;6.57;1.80;;;;;;;21.46;53.97;99337.88;4125001;28;20741;-65
2022/09/09 04:17:57;;;;;;;3.53;1.60;;;;;;;20.42;56.13;99391.53;4121469;28;20236;-65
2022/09/09 04:19:58;;;;;;;2.87;1.60;;;;;;;21.16;54.86;99345.13;4124575;28;20244;-65
2022/09/09 04:22:00;;;;;;;1.93;1.30;;;;;;;20.74;54.65;99418.25;4128995;28;20841;-65
2022/09/09 04:24:02;;;;;;;2.07;1.40;;;;;;;20.06;56.19;99430.28;4126111;28;20318;-65
2022/09/09 04:26:05;;;;;;;2.27;1.60;;;;;;;20.43;55.24;99416.66;4122189;28;20229;-65
2022/09/09 04:28:06;;;;;;;4.23;1.63;;;;;;;20.82;55.31;99365.75;4127727;28;20316;-65
2022/09/09 04:30:09;;;;;;;3.33;1.70;;;;;;;21.10;54.14;99370.41;4127838;28;20337;-65
2022/09/09 04:32:11;;;;;;;1.87;1.40;;;;;;;20.16;57.53;99381.13;4130397;28;20225;-65
2022/09/09 04:34:12;;;;;;;2.67;1.50;;;;;;;21.02;55.11;99346.44;4126188;28;20881;-65
2022/09/09 04:36:14;;;;;;;2.90;1.33;;;;;;;21.16;54.74;99347.84;4125628;28;20244;-65
2022/09/09 04:38:17;;;;;;;2.63;1.43;;;;;;;20.39;56.54;99375.00;4125747;28;20226;-65
2022/09/09 04:40:19;;;;;;;4.93;1.70;;;;;;;21.59;53.76;99334.88;4126398;28;20242;-65
2022/09/09 04:42:21;;;;;;;2.37;1.50;;;;;;;21.26;54.29;99357.22;4123527;28;20302;-65
2022/09/09 04:44:22;;;;;;;2.37;1.43;;;;;;;20.90;54.76;99395.06;4127087;28;20602;-65
2022/09/09 04:46:25;;;;;;;2.83;1.50;;;;;;;21.08;54.69;99383.34;4125053;28;20236;-65
2022/09/09 04:48:27;;;;;;;2.53;1.43;;;;;;;20.69;54.15;99452.44;4126596;28;20341;-65
2022/09/09 04:50:28;;;;;;;1.40;1.30;;;;;;;20.87;55.07;99400.97;4123465;28;20226;-65
2022/09/09 04:52:30;;;;;;;2.70;1.50;;;;;;;21.58;53.87;99349.47;4129837;28;20229;-65
2022/09/09 04:54:32;;;;;;;1.70;1.33;;;;;;;22.30;51.45;99375.16;4127098;28;20234;-65
2022/09/09 04:56:33;;;;;;;4.17;1.50;;;;;;;19.51;56.92;99495.91;4122578;28;20662;-65
2022/09/09 04:58:35;;;;;;;1.83;1.30;;;;;;;20.57;56.09;99393.00;4106462;28;20223;-65
2022/09/09 05:00:37;;;;;;;4.50;1.73;;;;;;;21.09;54.38;99392.28;4132579;28;20244;-65
2022/09/09 05:02:39;;;;;;;4.63;1.50;;;;;;;21.29;54.02;99400.84;4126305;28;20245;-65
2022/09/09 06:03:51;;;;;;;3.30;1.30;;;;;;;21.84;52.43;99395.97;622670;26;20554;-31
2022/09/09 06:06:02;;;;;;;1.97;1.47;;;;;;;21.13;53.72;99434.00;4109798;28;20337;-29
2022/09/09 06:08:03;;;;;;;2.33;1.53;;;;;;;20.91;54.36;99449.97;4120800;28;20321;-30
2022/09/09 06:10:06;;;;;;;2.87;1.40;;;;;;;21.82;52.33;99419.75;4125763;28;20237;-30
2022/09/09 06:12:07;;;;;;;1.53;1.43;;;;;;;22.29;51.38;99430.38;4125328;28;20735;-30
2022/09/09 06:14:09;;;;;;;5.67;1.50;;;;;;;22.44;51.22;99432.53;4110579;28;20787;-31
2022/09/09 06:16:13;;;;;;;3.30;1.63;;;;;;;21.21;53.09;99474.22;4125551;28;20798;-30
2022/09/09 06:18:18;;;;;;;4.13;1.60;;;;;;;22.80;50.63;99408.72;4125603;28;20329;-30
2022/09/09 06:20:20;;;;;;;2.50;1.70;;;;;;;22.99;50.11;99423.66;4120211;28;20276;-31
2022/09/09 06:22:21;;;;;;;6.70;1.97;;;;;;;22.67;50.58;99460.53;4127264;28;20276;-30
2022/09/09 06:24:23;;;;;;;3.70;1.60;;;;;;;22.06;51.19;99509.81;4125232;28;20588;-30
2022/09/09 06:26:34;;;;;;;1.97;1.50;;;;;;;22.57;51.01;99467.41;4125413;28;20268;-30
2022/09/09 06:28:37;;;;;;;1.83;1.50;;;;;;;22.61;50.74;99468.59;4125102;28;20324;-30
2022/09/09 06:30:39;;;;;;;3.83;1.63;;;;;;;22.88;51.07;99421.00;4108645;28;20231;-30
2022/09/09 06:32:42;;;;;;;3.07;1.80;;;;;;;23.14;50.31;99454.78;4111003;28;20211;-30
2022/09/09 06:34:45;;;;;;;2.77;1.57;;;;;;;23.40;49.11;99458.66;4109959;28;20330;-30
2022/09/09 06:36:46;;;;;;;3.77;2.13;;;;;;;21.69;52.47;99518.25;4111409;28;20218;-30
2022/09/09 06:38:48;;;;;;;3.23;1.50;;;;;;;22.92;51.00;99441.13;4110517;28;20345;-30
2022/09/09 06:40:58;;;;;;;2.77;1.60;;;;;;;22.93;50.63;99459.06;4108506;28;20265;-30
2022/09/09 06:43:00;;;;;;;4.73;1.60;;;;;;;23.37;49.87;99426.59;4108943;28;20238;-30
2022/09/09 06:45:02;;;;;;;5.50;1.90;;;;;;;23.42;49.47;99442.09;4108143;28;20285;-30
2022/09/09 06:47:05;;;;;;;3.90;1.57;;;;;;;21.75;53.00;99509.19;4109309;28;20254;-31
2022/09/09 06:49:08;;;;;;;3.30;1.80;;;;;;;23.55;49.80;99418.19;4112025;28;20238;-31
2022/09/09 06:51:23;;;;;;;4.83;1.53;;;;;;;22.13;51.99;99490.72;4096721;28;20510;-31
2022/09/09 06:53:27;;;;;;;3.50;1.63;;;;;;;21.95;53.18;99467.34;4106608;28;20612;-30
2022/09/09 06:55:28;;;;;;;2.83;1.50;;;;;;;23.09;50.92;99409.41;4107642;28;20317;-29
2022/09/09 06:57:30;;;;;;;3.33;1.87;;;;;;;22.86;51.61;99432.13;4108456;28;20318;-30
2022/09/09 06:59:38;;;;;;;4.57;1.90;;;;;;;23.79;49.59;99406.22;4108671;28;20237;-30
2022/09/09 07:01:43;;;;;;;4.63;2.20;;;;;;;21.90;52.34;99519.53;4108899;28;20330;-30
2022/09/09 07:03:50;;;;;;;5.57;1.70;;;;;;;22.36;52.88;99441.88;4105718;28;20234;-31
2022/09/09 07:05:56;;;;;;;3.77;1.53;;;;;;;22.20;52.76;99448.91;4109936;28;20261;-30
2022/09/09 07:07:58;;;;;;;6.47;2.23;;;;;;;23.13;50.74;99421.41;4111423;28;20758;-31
2022/09/09 07:09:59;;;;;;;2.00;1.70;;;;;;;22.24;51.44;99487.94;4109262;28;20655;-31
2022/09/09 07:12:01;;;;;;;4.37;1.90;;;;;;;22.80;50.55;99455.59;4111242;28;20259;-30
2022/09/09 07:14:03;;;;;;;2.70;1.73;;;;;;;22.00;53.33;99454.75;4109393;28;20323;-31
2022/09/09 07:16:07;;;;;;;3.23;1.63;;;;;;;21.52;54.39;99448.63;4109176;28;20263;-31
2022/09/09 07:18:10;;;;;;;3.57;2.23;;;;;;;22.67;52.42;99403.63;4106342;28;20325;-31
2022/09/09 07:20:12;;;;;;;4.03;1.77;;;;;;;21.26;54.18;99495.94;4111294;28;20331;-31
2022/09/09 07:22:14;;;;;;;2.27;1.70;;;;;;;22.39;52.55;99414.31;4110769;28;20235;-30
2022/09/09 07:24:16;;;;;;;4.97;2.10;;;;;;;22.72;51.89;99412.66;4113557;28;20658;-30
2022/09/09 07:26:20;;;;;;;3.30;2.10;;;;;;;23.22;51.24;99394.69;4113798;28;20267;-30
2022/09/09 07:28:22;;;;;;;6.03;2.27;;;;;;;21.76;53.55;99481.06;4111797;28;20328;-30
2022/09/09 07:30:24;;;;;;;4.97;2.00;;;;;;;20.99;55.49;99485.59;4111908;28;20708;-30
2022/09/09 07:32:30;;;;;;;3.90;1.90;;;;;;;22.15;53.81;99419.00;4126345;28;20233;-30
2022/09/09 07:34:33;;;;;;;4.87;1.87;;;;;;;23.24;51.67;99386.28;4126247;28;20327;-30
2022/09/09 07:36:39;;;;;;;5.90;1.60;;;;;;;21.30;54.61;99494.41;4127202;28;20626;-30
2022/09/09 07:38:45;;;;;;;3.27;1.80;;;;;;;23.28;51.29;99382.84;4111619;28;20719;-30
2022/09/09 07:40:47;;;;;;;2.37;1.80;;;;;;;23.62;50.52;99384.59;4108195;28;20297;-30
2022/09/09 07:42:48;;;;;;;5.67;1.97;;;;;;;23.36;51.36;99397.81;4111703;28;20238;-30
2022/09/09 07:44:54;;;;;;;4.03;2.20;;;;;;;22.35;52.14;99470.03;4113527;28;20245;-30
2022/09/09 07:46:56;;;;;;;2.40;1.80;;;;;;;22.94;51.71;99425.47;4109232;28;20318;-30
2022/09/09 07:48:58;;;;;;;5.03;2.00;;;;;;;23.24;51.56;99410.69;4112397;28;20266;-30
2022/09/09 07:51:10;;;;;;;2.33;1.60;;;;;;;22.92;51.43;99474.50;4114667;28;20272;-30
2022/09/09 07:53:12;;;;;;;3.97;1.60;;;;;;;22.16;53.90;99452.31;4115257;28;20261;-30
2022/09/09 07:55:14;;;;;;;4.97;1.73;;;;;;;23.93;50.18;99375.69;4126661;28;20620;-30
2022/09/09 07:57:16;;;;;;;3.87;1.77;;;;;;;23.58;50.70;99430.41;4127482;28;20237;-30
2022/09/09 07:59:20;;;;;;;4.50;2.07;;;;;;;22.82;52.35;99485.16;4127285;28;20574;-30
2022/09/09 08:01:29;;;;;;;9.63;5.20;;;;;;;23.22;51.92;99410.13;4127946;28;20249;-30
2022/09/09 08:03:30;;;;;;;15.73;10.73;;;;;;;23.31;52.02;99409.44;4123113;28;20236;-30
2022/09/09 08:05:32;;;;;;;10.73;4.97;;;;;;;22.92;52.08;99490.78;4123044;28;20288;-31
2022/09/09 08:07:34;;;;;;;8.90;3.00;;;;;;;23.19;51.65;99460.25;4126565;28;20603;-30
2022/09/09 08:09:36;;;;;;;5.33;2.03;;;;;;;22.03;52.58;99531.94;4123069;28;20257;-30
2022/09/09 08:11:39;;;;;;;4.67;2.30;;;;;;;23.26;52.29;99428.34;4127406;28;20265;-30
2022/09/09 08:13:43;;;;;;;3.27;1.90;;;;;;;22.07;53.78;99504.16;4127242;28;21098;-28
2022/09/09 08:15:45;;;;;;;6.57;1.93;;;;;;;23.60;51.48;99441.00;4125948;28;20261;-28
2022/09/09 08:17:47;;;;;;;3.80;2.00;;;;;;;22.79;53.16;99478.38;4128906;28;20229;-29
2022/09/09 08:19:49;;;;;;;3.93;2.00;;;;;;;23.82;51.17;99413.84;4127067;28;20276;-29
2022/09/09 08:21:50;;;;;;;3.97;2.00;;;;;;;23.01;53.27;99497.44;4130944;28;20722;-28
2022/09/09 08:23:53;;;;;;;6.13;1.90;;;;;;;23.79;51.09;99457.78;4127077;28;20268;-29
2022/09/09 08:26:22;;;;;;;5.67;1.97;;;;;;;24.66;49.82;99415.97;4112468;28;20241;-28
2022/09/09 08:28:24;;;;;;;3.30;1.70;;;;;;;23.67;51.18;99502.19;4125115;28;20235;-28
2022/09/09 08:30:26;;;;;;;3.93;1.90;;;;;;;23.88;51.18;99489.66;4131508;28;20262;-29
2022/09/09 08:32:28;;;;;;;2.70;1.87;;;;;;;23.70;51.06;99507.09;4127769;28;20225;-28
2022/09/09 08:34:30;;;;;;;3.47;1.67;;;;;;;23.71;51.00;99505.22;4126759;28;20325;-29
2022/09/09 08:36:36;;;;;;;5.33;2.27;;;;;;;22.78;52.83;99535.53;4127422;28;20880;-31
2022/09/09 08:38:38;;;;;;;3.90;1.97;;;;;;;23.16;52.32;99515.81;4128052;28;20580;-31
2022/09/09 08:40:48;;;;;;;3.67;2.10;;;;;;;23.70;51.63;99465.56;4126338;28;20691;-32
2022/09/09 08:42:55;;;;;;;4.70;2.10;;;;;;;22.53;54.00;99492.56;4126039;28;20229;-28
2022/09/09 08:45:09;;;;;;;5.87;2.40;;;;;;;22.38;53.57;99531.84;4124999;28;20292;-28
2022/09/09 08:47:28;;;;;;;2.27;1.90;;;;;;;21.99;55.34;99506.44;4108619;28;20258;-28
2022/09/09 08:50:02;;;;;;;3.30;1.80;;;;;;;22.62;54.31;99466.69;4122871;28;20613;-28
2022/09/09 08:52:12;;;;;;;3.40;1.83;;;;;;;22.91;53.72;99478.28;4130006;28;20254;-29
2022/09/09 08:54:14;;;;;;;7.17;2.40;;;;;;;21.82;55.78;99496.34;4124927;28;20313;-31
2022/09/09 08:56:36;;;;;;;2.50;1.90;;;;;;;22.81;54.62;99459.13;4125206;28;20308;-29
2022/09/09 08:58:46;;;;;;;5.63;2.20;;;;;;;24.26;51.63;99392.88;4130277;28;20272;-28
2022/09/09 09:01:09;;;;;;;5.97;1.97;;;;;;;22.83;53.74;99476.78;4110505;28;20523;-29
2022/09/09 09:03:26;;;;;;;2.73;1.77;;;;;;;23.33;52.53;99445.28;4107717;28;20223;-29
2022/09/09 09:05:34;;;;;;;4.30;1.60;;;;;;;22.63;54.10;99469.16;4110955;28;21017;-29
2022/09/09 09:07:55;;;;;;;3.93;1.83;;;;;;;22.12;55.14;99498.03;4107738;28;20269;-29
2022/09/09 09:10:15;;;;;;;8.17;2.47;;;;;;;22.95;53.25;99435.25;4109230;28;20238;-29
2022/09/09 09:12:41;;;;;;;4.43;1.83;;;;;;;22.30;53.40;99507.84;4121401;28;20229;-29
2022/09/09 09:14:45;;;;;;;5.77;2.00;;;;;;;23.53;51.67;99404.00;4112273;28;20715;-29
2022/09/09 09:17:09;;;;;;;4.10;1.67;;;;;;;22.77;52.34;99482.38;4129257;28;20636;-29
2022/09/09 09:19:15;;;;;;;4.77;1.57;;;;;;;23.62;51.04;99449.72;4126200;28;20321;-30
2022/09/09 09:21:33;;;;;;;6.43;2.00;;;;;;;24.16;49.67;99424.50;4125660;28;20668;-30
2022/09/09 09:24:07;;;;;;;3.40;1.30;;;;;;;24.07;50.23;99456.75;4122666;28;20250;-30
2022/09/09 09:26:11;;;;;;;3.97;1.90;;;;;;;23.99;50.31;99482.47;4124235;28;20337;-30
2022/09/09 09:28:18;;;;;;;5.47;1.73;;;;;;;22.46;52.42;99515.19;4125004;28;20667;-30
2022/09/09 09:30:23;;;;;;;4.73;2.17;;;;;;;23.49;51.32;99473.41;4123540;28;20256;-29
2022/09/09 09:32:34;;;;;;;7.67;1.70;;;;;;;23.78;50.40;99472.44;4125134;28;20234;-30
2022/09/09 09:34:36;;;;;;;3.40;1.47;;;;;;;22.52;52.23;99489.00;4098144;28;20862;-30
2022/09/09 09:36:42;;;;;;;4.57;2.00;;;;;;;24.02;49.46;99421.38;4126813;28;20270;-30
2022/09/09 09:38:57;;;;;;;3.37;1.93;;;;;;;24.62;48.69;99414.88;4110944;28;20269;-30
2022/09/09 09:41:30;;;;;;;4.37;1.60;;;;;;;23.84;49.08;99496.69;4124335;28;20248;-30
2022/09/09 09:43:34;;;;;;;4.97;1.53;;;;;;;23.62;48.95;99490.44;4121471;28;20644;-30
2022/09/09 09:45:44;;;;;;;4.67;1.47;;;;;;;22.97;50.01;99533.44;4126874;28;20715;-30
2022/09/09 09:48:10;;;;;;;5.53;1.80;;;;;;;24.50;48.30;99447.66;4125538;28;20234;-30
2022/09/09 09:50:19;;;;;;;4.50;1.50;;;;;;;24.22;48.04;99461.53;4125968;28;20233;-30
2022/09/09 09:52:23;;;;;;;6.47;1.40;;;;;;;23.81;49.20;99494.47;4125604;28;20257;-29
2022/09/09 09:54:30;;;;;;;6.47;1.60;;;;;;;22.68;50.80;99510.97;4127523;28;20261;-29
2022/09/09 09:56:32;;;;;;;8.07;1.40;;;;;;;24.02;49.00;99470.28;4126406;28;20274;-30
2022/09/09 09:58:50;;;;;;;4.43;1.47;;;;;;;24.56;47.99;99453.16;4123166;28;20260;-30
2022/09/09 10:00:53;;;;;;;4.87;1.60;;;;;;;23.76;49.48;99487.09;4120230;28;20651;-30
2022/09/09 10:02:56;;;;;;;6.70;1.80;;;;;;;23.61;48.51;99516.75;4123573;28;20731;-29
2022/09/09 10:05:04;;;;;;;2.97;1.50;;;;;;;24.41;48.05;99461.97;4124684;28;20258;-30
2022/09/09 10:07:16;;;;;;;5.27;1.60;;;;;;;23.05;49.76;99538.44;4124143;28;20242;-30
2022/09/09 10:09:32;;;;;;;3.90;1.50;;;;;;;24.47;47.65;99461.78;4126085;28;20723;-30
2022/09/09 10:11:52;;;;;;;5.73;1.70;;;;;;;23.77;48.99;99471.59;4124738;28;20233;-30
2022/09/09 10:14:30;;;;;;;4.13;1.63;;;;;;;23.14;49.17;99525.28;4125314;28;20535;-30
2022/09/09 10:16:57;;;;;;;3.30;1.50;;;;;;;23.81;48.44;99467.34;4125667;28;20350;-30
2022/09/09 10:19:04;;;;;;;5.20;2.30;;;;;;;24.76;47.28;99415.25;4124468;28;20284;-30
2022/09/09 10:21:05;;;;;;;5.77;1.77;;;;;;;25.70;45.75;99395.63;4124929;28;20244;-30
2022/09/09 10:23:50;;;;;;;4.37;1.67;;;;;;;25.88;45.46;99403.28;4129231;28;20238;-29
2022/09/09 10:26:06;;;;;;;5.00;2.00;;;;;;;24.75;46.84;99472.59;4123551;28;20260;-29
2022/09/09 10:28:08;;;;;;;5.17;1.70;;;;;;;24.89;46.50;99482.00;4124408;28;20264;-29
2022/09/09 10:30:10;;;;;;;7.05;1.90;;;;;;;23.31;47.29;99538.81;4120989;28;20253;-29
2022/09/09 10:32:31;;;;;;;3.93;1.40;;;;;;;24.00;46.68;99465.09;4127090;28;20276;-30
2022/09/09 10:35:02;;;;;;;5.27;1.80;;;;;;;24.29;46.28;99459.44;4118182;28;20525;-30
2022/09/09 10:37:22;;;;;;;4.90;1.50;;;;;;;24.46;45.42;99448.44;4122619;28;20278;-30
2022/09/09 10:39:53;;;;;;;3.70;1.50;;;;;;;24.89;46.17;99432.22;4122064;28;20269;-28
2022/09/09 10:42:04;;;;;;;6.70;2.20;;;;;;;24.97;44.89;99458.91;4122417;28;20345;-31
2022/09/09 10:44:18;;;;;;;3.10;1.70;;;;;;;25.07;44.10;99463.59;4122937;28;20382;-30
2022/09/09 10:46:43;;;;;;;4.73;1.87;;;;;;;25.41;44.79;99429.53;4121857;28;20328;-28
2022/09/09 10:49:04;;;;;;;5.93;1.42;;;;;;;24.34;45.06;99455.94;4079421;28;20779;-28
2022/09/09 10:51:09;;;;;;;4.43;1.20;;;;;;;24.40;45.51;99458.47;4123843;28;20746;-29
2022/09/09 10:53:46;;;;;;;2.03;1.10;;;;;;;23.29;46.50;99478.59;4121414;28;20316;-29
2022/09/09 10:56:04;;;;;;;4.78;1.40;;;;;;;23.68;45.79;99492.16;4123225;28;21436;-28
2022/09/09 10:58:18;;;;;;;3.65;1.40;;;;;;;24.76;44.15;99439.72;4123669;28;20245;-29
2022/09/09 11:03:29;;;;;;;2.47;1.53;;;;;;;22.48;48.20;99394.94;4177542;27;21161;-68
2022/09/09 11:05:49;;;;;;;6.50;1.70;;;;;;;23.24;47.05;99362.69;4161774;23;20225;-31